UGSB/BUS METAR and TAF weather

Enter ICAO airport designator
Station Type Date Time Source
UGSB METAR 2019/04/24 16:30 UTC NOAA

UGSB 241630Z 26003KT CAVOK 10/08 Q1028 NOSIG


Station Type Date Time Source
UGSB Decoded METAR 2019/04/24 16:30 UTC NOAA

Station name not available
Apr 24, 2019 - 12:30 PM EDT / 2019.04.24 1630 UTC
Wind: from the W (260 degrees) at 3 MPH (3 KT):0
Visibility: greater than 7 mile(s):0
Temperature: 50 F (10 C)
Dew Point: 46 F (8 C)
Relative Humidity: 87%
Pressure (altimeter): 30.36 in. Hg (1028 hPa)
ob: UGSB 241630Z 26003KT CAVOK 10/08 Q1028 NOSIG
cycle: 16

Station Type Date Time Source
UGSB TAF 2019/04/24 12:03 UTC NOAA

TAF UGSB 241100Z 2412/2512 33007KT CAVOK TX17/2412Z TN07/2502Z
BECMG 2417/2419 13012KT
BECMG 2506/2507 35007KT

Example: see airport list